Time;durP1;ratioP1;P1;durP2;ratioP2;P2;SDS_P1;SDS_P2;PMS_P1;PMS_P2;Temp;Humidity;BMP_temperature;BMP_pressure;BME280_temperature;BME280_humidity;BME280_pressure;Samples;Min_cycle;Max_cycle;Signal;HPM_P1;HPM_P2
2023/01/21 00:00:57;;;;;;;79.95;32.45;;;;;;;-2.77;100.00;102520.38;5096234;28;20048;-81
2023/01/21 00:03:23;;;;;;;82.95;31.90;;;;;;;-2.69;100.00;102539.56;5098767;28;20055;-81
2023/01/21 00:05:49;;;;;;;79.60;31.98;;;;;;;-2.74;100.00;102537.56;5102427;28;20032;-81
2023/01/21 00:08:14;;;;;;;82.85;32.55;;;;;;;-2.81;100.00;102531.22;5091849;28;20505;-81
2023/01/21 00:10:40;;;;;;;83.30;33.70;;;;;;;-2.83;100.00;102536.22;5097862;28;20058;-81
2023/01/21 00:13:05;;;;;;;79.95;32.97;;;;;;;-2.83;100.00;102540.44;5092421;28;20039;-82
2023/01/21 00:15:30;;;;;;;84.57;32.78;;;;;;;-2.77;100.00;102558.69;5092142;28;20028;-81
2023/01/21 00:17:56;;;;;;;84.13;34.60;;;;;;;-2.74;100.00;102557.97;5092165;28;20467;-81
2023/01/21 00:20:21;;;;;;;82.95;34.10;;;;;;;-2.74;100.00;102566.50;5091861;28;20113;-81
2023/01/21 00:22:47;;;;;;;79.93;31.42;;;;;;;-2.77;100.00;102565.47;5092203;28;20028;-81
2023/01/21 00:25:12;;;;;;;77.55;34.97;;;;;;;-2.78;100.00;102568.78;5105876;28;20036;-81
2023/01/21 00:27:38;;;;;;;90.32;34.85;;;;;;;-2.76;100.00;102570.63;5092062;28;20024;-81
2023/01/21 00:30:04;;;;;;;79.47;34.40;;;;;;;-2.85;100.00;102572.66;5091909;28;20024;-81
2023/01/21 00:32:29;;;;;;;78.75;33.53;;;;;;;-2.97;100.00;102560.06;5092124;28;20047;-81
2023/01/21 00:34:54;;;;;;;78.32;32.20;;;;;;;-2.84;100.00;102579.53;5092214;28;20106;-81
2023/01/21 00:37:20;;;;;;;86.38;33.67;;;;;;;-2.85;100.00;102582.84;5099501;28;20020;-81
2023/01/21 00:39:45;;;;;;;81.55;33.97;;;;;;;-2.98;100.00;102559.97;5092393;28;20111;-81
2023/01/21 00:42:11;;;;;;;90.47;35.80;;;;;;;-2.93;100.00;102584.97;5095280;28;20024;-81
2023/01/21 00:44:37;;;;;;;78.95;34.05;;;;;;;-3.07;100.00;102568.84;5096052;28;20035;-81
2023/01/21 00:47:02;;;;;;;87.15;35.28;;;;;;;-2.96;100.00;102594.13;5095851;28;20035;-81
2023/01/21 00:49:28;;;;;;;80.45;32.78;;;;;;;-3.03;100.00;102590.31;5095742;28;20032;-81
2023/01/21 00:51:53;;;;;;;90.00;35.47;;;;;;;-3.14;100.00;102576.94;5095452;28;20116;-80
2023/01/21 00:54:18;;;;;;;80.25;35.08;;;;;;;-3.01;100.00;102600.59;5106803;28;20024;-81
2023/01/21 00:56:43;;;;;;;85.60;34.28;;;;;;;-3.07;100.00;102602.03;5097171;28;20031;-81
2023/01/21 00:59:09;;;;;;;87.72;33.17;;;;;;;-3.07;100.00;102611.34;5095060;28;20086;-81
2023/01/21 01:01:37;;;;;;;78.15;31.70;;;;;;;-3.09;100.00;102626.53;5110102;28;20442;-81
2023/01/21 01:04:04;;;;;;;84.50;33.70;;;;;;;-3.19;100.00;102616.56;5095901;28;20085;-80
2023/01/21 01:06:30;;;;;;;82.95;35.00;;;;;;;-3.21;100.00;102618.13;5094853;28;20035;-81
2023/01/21 01:08:57;;;;;;;86.10;33.38;;;;;;;-3.11;100.00;102640.91;5110187;28;20379;-80
2023/01/21 01:11:25;;;;;;;83.05;33.28;;;;;;;-3.21;100.00;102628.34;5095833;28;20081;-81
2023/01/21 01:13:52;;;;;;;89.57;34.13;;;;;;;-3.16;100.00;102644.81;5107180;28;20024;-80
2023/01/21 01:16:18;;;;;;;84.95;35.10;;;;;;;-3.29;100.00;102624.47;5101012;28;20020;-81
2023/01/21 01:18:44;;;;;;;91.20;35.90;;;;;;;-3.17;100.00;102655.81;5095226;28;20040;-80
2023/01/21 01:21:12;;;;;;;85.90;35.42;;;;;;;-3.18;100.00;102660.81;5094722;28;20070;-81
2023/01/21 01:23:37;;;;;;;91.72;35.65;;;;;;;-3.41;100.00;102633.91;5095458;28;20020;-81
2023/01/21 01:26:05;;;;;;;95.43;35.60;;;;;;;-3.23;100.00;102677.53;5095561;28;20028;-80
2023/01/21 01:28:32;;;;;;;91.82;34.10;;;;;;;-3.27;100.00;102680.66;5095083;28;20024;-80
2023/01/21 01:30:58;;;;;;;89.82;35.20;;;;;;;-3.30;100.00;102689.91;5095111;28;20140;-80
2023/01/21 01:33:24;;;;;;;89.93;35.00;;;;;;;-3.53;100.00;102660.41;5094411;28;20099;-80
2023/01/21 01:35:49;;;;;;;86.82;34.78;;;;;;;-3.58;100.00;102658.34;5095046;28;20020;-80
2023/01/21 01:38:18;;;;;;;98.43;37.20;;;;;;;-3.51;100.00;102670.69;5096912;28;20032;-80
2023/01/21 01:40:44;;;;;;;94.25;37.03;;;;;;;-3.36;100.00;102701.38;5103116;28;20028;-80
2023/01/21 01:43:22;;;;;;;98.05;36.40;;;;;;;-3.31;100.00;102707.63;5094543;28;20022;-80
2023/01/21 01:45:48;;;;;;;99.82;39.10;;;;;;;-3.30;100.00;102714.53;5103677;28;20035;-80
2023/01/21 01:48:21;;;;;;;102.43;39.15;;;;;;;-3.31;100.00;102710.19;5108364;28;20111;-80
2023/01/21 01:50:47;;;;;;;110.43;40.90;;;;;;;-3.39;100.00;102701.19;5102957;28;20024;-80
2023/01/21 01:53:14;;;;;;;105.30;39.78;;;;;;;-3.44;100.00;102700.00;5094059;28;20099;-80
2023/01/21 01:55:40;;;;;;;102.93;39.38;;;;;;;-3.47;100.00;102699.81;5094649;28;20051;-81
2023/01/21 01:58:10;;;;;;;109.68;40.65;;;;;;;-3.66;100.00;102678.25;5094645;28;20024;-80
2023/01/21 02:00:35;;;;;;;102.93;39.85;;;;;;;-3.46;100.00;102709.25;5102356;28;20047;-80
2023/01/21 02:05:45;;;;;;;;;;;;;;;-3.41;100.00;102730.81;5100931;28;20128;-80
2023/01/21 02:08:10;;;;;;;107.07;38.28;;;;;;;-3.43;100.00;102734.94;5098573;28;19977;-81
2023/01/21 02:10:36;;;;;;;101.40;38.95;;;;;;;-3.47;100.00;102730.41;5094119;28;20031;-81
2023/01/21 02:13:02;;;;;;;106.00;40.05;;;;;;;-3.48;100.00;102734.63;5094719;28;20065;-81
2023/01/21 02:15:42;;;;;;;110.18;42.55;;;;;;;-3.48;100.00;102743.94;5094220;28;20233;-81
2023/01/21 02:18:35;;;;;;;115.35;41.30;;;;;;;-3.49;100.00;102744.75;5095644;28;20047;-81
2023/01/21 02:21:12;;;;;;;105.85;39.45;;;;;;;-3.54;100.00;102747.84;5094241;28;20036;-80
2023/01/21 02:24:25;;;;;;;110.45;42.42;;;;;;;-3.57;100.00;102756.97;5093665;28;20430;-81
2023/01/21 02:27:29;;;;;;;104.80;42.35;;;;;;;-3.60;100.00;102757.69;5035167;28;20028;-81
2023/01/21 02:30:36;;;;;;;105.63;41.25;;;;;;;-3.70;100.00;102742.56;5094029;28;20489;-81
2023/01/21 02:33:23;;;;;;;110.18;42.92;;;;;;;-3.63;100.00;102760.03;5104159;28;20034;-81
2023/01/21 02:36:18;;;;;;;111.15;41.90;;;;;;;-3.61;100.00;102763.56;5109116;28;20030;-81
2023/01/21 02:39:07;;;;;;;115.97;42.63;;;;;;;-3.62;100.00;102764.34;5093585;28;20032;-81
2023/01/21 02:41:53;;;;;;;120.05;45.70;;;;;;;-3.66;100.00;102764.94;5094088;28;20102;-81
2023/01/21 02:44:55;;;;;;;110.78;43.67;;;;;;;-3.67;100.00;102765.69;5092995;28;20459;-81
2023/01/21 02:47:46;;;;;;;115.85;42.55;;;;;;;-3.70;100.00;102778.25;5093619;28;20035;-81
2023/01/21 02:50:17;;;;;;;118.95;44.40;;;;;;;-3.74;100.00;102775.41;5093593;28;20027;-81
2023/01/21 02:52:42;;;;;;;126.50;46.35;;;;;;;-3.74;100.00;102781.38;5100645;28;20020;-80
2023/01/21 02:55:14;;;;;;;117.93;47.45;;;;;;;-3.80;100.00;102765.69;5093448;28;20107;-81
2023/01/21 02:57:55;;;;;;;121.15;46.60;;;;;;;-3.84;100.00;102766.28;5106939;28;20030;-81
2023/01/21 03:00:26;;;;;;;123.05;45.80;;;;;;;-3.75;100.00;102789.81;5093345;28;20032;-81
2023/01/21 03:03:19;;;;;;;120.10;45.08;;;;;;;-3.77;100.00;102794.81;5092946;28;20028;-80
2023/01/21 03:06:25;;;;;;;126.60;48.67;;;;;;;-3.76;100.00;102803.34;5093525;28;20035;-80
2023/01/21 03:08:55;;;;;;;119.80;46.47;;;;;;;-3.80;100.00;102796.25;5112070;28;20028;-81
2023/01/21 03:11:22;;;;;;;128.68;46.80;;;;;;;-3.80;100.00;102798.81;5106466;28;20108;-80
2023/01/21 03:16:57;;;;;;;131.90;49.55;;;;;;;-3.86;100.00;102785.66;5101222;28;20027;-80
2023/01/21 03:19:41;;;;;;;132.13;48.20;;;;;;;-3.75;100.00;102802.56;5103827;28;20044;-80
2023/01/21 03:22:12;;;;;;;132.10;49.78;;;;;;;-3.77;100.00;102812.63;5092805;28;20016;-81
2023/01/21 03:24:42;;;;;;;124.57;49.35;;;;;;;-4.15;100.00;102743.88;5103584;28;20022;-80
2023/01/21 03:27:12;;;;;;;122.75;47.67;;;;;;;-3.79;100.00;102814.22;5096602;28;20020;-81
2023/01/21 03:29:41;;;;;;;129.98;48.90;;;;;;;-3.91;100.00;102795.56;5094027;28;20047;-81
2023/01/21 03:32:08;;;;;;;121.00;47.70;;;;;;;-3.81;100.00;102813.22;5094763;28;20467;-82
2023/01/21 03:34:40;;;;;;;121.75;46.90;;;;;;;-3.90;100.00;102793.91;5092562;28;20073;-81
2023/01/21 03:37:11;;;;;;;123.93;46.28;;;;;;;-3.88;100.00;102802.53;5093860;28;20383;-80
2023/01/21 03:39:47;;;;;;;129.00;48.53;;;;;;;-3.76;100.00;102823.75;5093202;28;20086;-80
2023/01/21 03:42:13;;;;;;;125.40;47.47;;;;;;;-3.87;100.00;102811.94;5106129;28;20479;-80
2023/01/21 03:44:39;;;;;;;125.63;47.08;;;;;;;-3.89;100.00;102805.84;5093626;28;20016;-81
2023/01/21 03:47:04;;;;;;;127.30;46.28;;;;;;;-3.80;100.00;102830.28;5092132;28;20032;-80
2023/01/21 03:49:58;;;;;;;134.45;47.63;;;;;;;-3.83;100.00;102832.63;5092342;28;20024;-81
2023/01/21 03:52:25;;;;;;;130.30;46.13;;;;;;;-3.83;100.00;102841.94;5090001;28;20036;-81
2023/01/21 03:54:52;;;;;;;123.80;44.67;;;;;;;-4.13;100.00;102787.25;5092274;28;20072;-80
2023/01/21 03:57:18;;;;;;;118.13;43.97;;;;;;;-3.83;100.00;102840.25;5092009;28;20067;-80
2023/01/21 03:59:43;;;;;;;124.45;46.80;;;;;;;-4.00;100.00;102808.56;5092702;28;20063;-81
2023/01/21 04:02:09;;;;;;;118.78;44.63;;;;;;;-3.82;100.00;102847.16;5093637;28;20028;-81
2023/01/21 04:04:34;;;;;;;119.18;45.45;;;;;;;-3.95;100.00;102825.84;5096119;28;20107;-81
2023/01/21 04:06:59;;;;;;;122.18;43.13;;;;;;;-3.89;100.00;102841.53;5092577;28;20056;-80
2023/01/21 04:09:25;;;;;;;122.55;43.45;;;;;;;-3.92;100.00;102836.25;5091612;28;20024;-81
2023/01/21 04:11:51;;;;;;;122.18;45.03;;;;;;;-3.95;100.00;102836.91;5092475;28;20023;-81
2023/01/21 04:14:17;;;;;;;123.75;44.05;;;;;;;-3.93;100.00;102842.09;5091771;28;20032;-81
2023/01/21 04:16:43;;;;;;;123.72;45.33;;;;;;;-4.12;100.00;102812.84;5097724;28;20034;-81
2023/01/21 04:19:09;;;;;;;116.70;42.33;;;;;;;-4.04;100.00;102844.81;5104030;28;20052;-81
2023/01/21 04:21:34;;;;;;;119.88;43.58;;;;;;;-3.97;100.00;102858.84;5097188;28;20075;-81
2023/01/21 04:24:00;;;;;;;118.00;42.72;;;;;;;-3.96;100.00;102865.69;5097150;28;20564;-81
2023/01/21 04:26:25;;;;;;;115.10;41.33;;;;;;;-3.94;100.00;102865.81;5103288;28;20020;-81
2023/01/21 04:28:50;;;;;;;119.47;42.28;;;;;;;-3.98;100.00;102861.31;5092619;28;20020;-81
2023/01/21 04:31:16;;;;;;;120.03;41.55;;;;;;;-4.04;100.00;102855.00;5110246;28;20019;-81
2023/01/21 04:33:41;;;;;;;114.70;40.22;;;;;;;-3.98;100.00;102871.50;5099432;28;20028;-81
2023/01/21 04:36:06;;;;;;;110.60;38.60;;;;;;;-4.00;100.00;102872.25;5105743;28;20076;-81
2023/01/21 04:38:32;;;;;;;116.47;39.72;;;;;;;-4.12;100.00;102850.16;5096160;28;20028;-81
2023/01/21 04:40:57;;;;;;;110.93;40.88;;;;;;;-4.35;100.00;102815.47;5111501;28;20038;-81
2023/01/21 04:43:22;;;;;;;116.25;39.60;;;;;;;-4.22;100.00;102835.91;5098379;28;20039;-80
2023/01/21 04:45:49;;;;;;;107.05;37.70;;;;;;;-4.11;100.00;102867.22;5096848;28;20103;-81
2023/01/21 04:48:15;;;;;;;109.18;39.38;;;;;;;-4.19;100.00;102861.59;5101338;28;20023;-80
2023/01/21 04:50:40;;;;;;;110.78;37.83;;;;;;;-4.11;100.00;102885.06;5091423;28;20394;-80
2023/01/21 04:53:06;;;;;;;107.57;36.88;;;;;;;-4.14;100.00;102892.50;5109842;28;20020;-80
2023/01/21 04:55:31;;;;;;;103.40;37.03;;;;;;;-4.16;100.00;102886.41;5097395;28;20077;-80
2023/01/21 04:57:56;;;;;;;104.90;36.40;;;;;;;-4.25;100.00;102873.94;5091719;28;20096;-81
2023/01/21 05:00:22;;;;;;;106.43;37.17;;;;;;;-4.18;100.00;102898.16;5096718;28;20378;-80
2023/01/21 05:02:47;;;;;;;104.20;37.35;;;;;;;-4.20;100.00;102886.97;5107043;28;20489;-81
2023/01/21 05:05:13;;;;;;;105.85;36.55;;;;;;;-4.21;100.00;102893.72;5097498;28;20020;-81
2023/01/21 05:07:38;;;;;;;103.20;36.33;;;;;;;-4.21;100.00;102897.94;5104762;28;20032;-81
2023/01/21 05:10:04;;;;;;;108.75;36.78;;;;;;;-4.32;100.00;102884.44;5091654;28;20396;-81
2023/01/21 05:12:29;;;;;;;107.70;35.97;;;;;;;-4.50;100.00;102851.84;5104901;28;20551;-80
2023/01/21 05:14:56;;;;;;;107.70;37.05;;;;;;;-4.32;100.00;102887.00;5106770;28;20157;-80
2023/01/21 05:17:22;;;;;;;104.72;37.22;;;;;;;-4.20;100.00;102907.34;5106919;28;20117;-80
2023/01/21 05:19:49;;;;;;;102.78;37.38;;;;;;;-4.21;100.00;102914.09;5109708;28;20073;-81
2023/01/21 05:22:14;;;;;;;109.60;37.47;;;;;;;-4.21;100.00;102906.47;5111908;28;20012;-80
2023/01/21 05:24:39;;;;;;;112.47;38.15;;;;;;;-4.31;100.00;102896.41;5111443;28;20034;-80
2023/01/21 05:27:04;;;;;;;108.47;38.05;;;;;;;-4.24;100.00;102909.69;5095026;28;20032;-80
2023/01/21 05:29:30;;;;;;;116.60;36.55;;;;;;;-4.24;100.00;102924.97;5095750;28;20055;-81
2023/01/21 05:31:55;;;;;;;118.03;38.40;;;;;;;-4.32;100.00;102909.91;5109194;28;20382;-80
2023/01/21 05:34:22;;;;;;;108.57;37.58;;;;;;;-4.30;100.00;102921.09;5113354;28;20035;-81
2023/01/21 05:36:47;;;;;;;96.78;35.28;;;;;;;-4.33;100.00;102928.53;5103285;28;20113;-81
2023/01/21 05:39:13;;;;;;;96.82;35.50;;;;;;;-4.45;100.00;102904.72;5114452;28;20466;-80
2023/01/21 05:41:38;;;;;;;110.15;37.35;;;;;;;-4.35;100.00;102930.06;5113903;28;20118;-80
2023/01/21 05:44:03;;;;;;;94.95;34.97;;;;;;;-4.67;100.00;102880.31;5110647;28;20069;-80
2023/01/21 05:46:29;;;;;;;108.53;35.95;;;;;;;-4.48;100.00;102923.22;5102658;28;20073;-80
2023/01/21 05:48:54;;;;;;;103.35;35.22;;;;;;;-4.41;100.00;102934.75;5107152;28;20084;-80
2023/01/21 05:51:19;;;;;;;99.45;34.47;;;;;;;-4.64;100.00;102900.91;5105760;28;20028;-80
2023/01/21 05:53:45;;;;;;;108.88;37.50;;;;;;;-4.41;100.00;102934.75;5105019;28;20027;-80
2023/01/21 05:56:10;;;;;;;110.82;36.47;;;;;;;-4.36;100.00;102943.59;5113703;28;20435;-81
2023/01/21 05:58:35;;;;;;;109.03;35.80;;;;;;;-4.37;100.00;102937.59;5112342;28;20479;-80
2023/01/21 06:01:01;;;;;;;107.55;37.60;;;;;;;-4.37;100.00;102936.72;5098661;28;20030;-80
2023/01/21 06:03:26;;;;;;;103.88;35.38;;;;;;;-4.34;100.00;102945.47;5112966;28;20027;-81
2023/01/21 06:05:52;;;;;;;111.80;35.38;;;;;;;-4.37;100.00;102941.81;5103581;28;20038;-80
2023/01/21 06:08:17;;;;;;;110.10;36.28;;;;;;;-4.40;100.00;102947.56;5113642;28;20096;-80
2023/01/21 06:10:43;;;;;;;104.43;33.85;;;;;;;-4.49;100.00;102944.38;5112750;28;20110;-80
2023/01/21 06:13:13;;;;;;;99.28;35.92;;;;;;;-4.53;100.00;102950.91;5105812;27;20027;-80
2023/01/21 06:15:38;;;;;;;103.90;33.67;;;;;;;-4.52;100.00;102957.75;5098319;28;20039;-80
2023/01/21 06:18:04;;;;;;;107.28;35.53;;;;;;;-4.48;100.00;102966.50;5096613;28;20032;-80
2023/01/21 06:20:30;;;;;;;100.00;34.53;;;;;;;-4.62;100.00;102950.25;5107853;28;20097;-80
2023/01/21 06:22:56;;;;;;;102.18;34.50;;;;;;;-4.53;100.00;102970.41;5106876;28;20044;-80
2023/01/21 06:25:22;;;;;;;102.45;33.75;;;;;;;-4.65;100.00;102957.66;5095014;28;20797;-80
2023/01/21 06:27:47;;;;;;;97.32;34.53;;;;;;;-4.55;100.00;102983.00;5105527;28;20035;-80
2023/01/21 06:30:13;;;;;;;97.97;33.30;;;;;;;-4.71;100.00;102949.56;5097537;28;20829;-80
2023/01/21 06:32:38;;;;;;;91.78;32.80;;;;;;;-4.58;100.00;102984.44;5104838;28;20031;-80
2023/01/21 06:35:04;;;;;;;99.47;35.03;;;;;;;-4.79;100.00;102953.25;5097093;28;20028;-81
2023/01/21 06:37:29;;;;;;;103.78;36.67;;;;;;;-4.67;100.00;102969.41;5093893;28;20476;-80
2023/01/21 06:39:55;;;;;;;106.32;37.33;;;;;;;-4.63;100.00;102989.22;5093861;28;20493;-80
2023/01/21 06:42:20;;;;;;;103.40;33.45;;;;;;;-4.61;100.00;102997.84;5093909;28;20027;-80
2023/01/21 06:44:46;;;;;;;95.18;34.80;;;;;;;-4.75;100.00;102994.28;5103855;28;20386;-80
2023/01/21 06:47:12;;;;;;;98.95;35.75;;;;;;;-4.73;100.00;103007.13;5112050;28;20035;-80
2023/01/21 06:49:37;;;;;;;95.15;31.55;;;;;;;-4.74;100.00;103005.38;5102300;28;20026;-80
2023/01/21 06:52:02;;;;;;;92.53;33.42;;;;;;;-4.75;100.00;103017.19;5112463;28;20016;-81
2023/01/21 06:54:28;;;;;;;93.85;31.77;;;;;;;-4.75;100.00;103021.38;5093699;28;20047;-80
2023/01/21 06:56:53;;;;;;;101.78;33.42;;;;;;;-4.76;100.00;103028.16;5094887;28;20020;-80
2023/01/21 06:59:18;;;;;;;97.15;34.08;;;;;;;-4.78;100.00;103023.69;5092868;28;20383;-80
2023/01/21 07:01:44;;;;;;;104.00;32.90;;;;;;;-4.81;100.00;103018.38;5093618;28;20062;-80
2023/01/21 07:04:09;;;;;;;99.43;31.50;;;;;;;-4.90;100.00;103017.75;5108714;28;20035;-80
2023/01/21 07:06:35;;;;;;;89.53;32.10;;;;;;;-4.86;100.00;103030.78;5105829;28;20032;-80
2023/01/21 07:09:02;;;;;;;98.28;33.40;;;;;;;-4.92;100.00;103032.00;5094189;28;20121;-80
2023/01/21 07:11:28;;;;;;;98.57;33.17;;;;;;;-4.97;100.00;103026.53;5092860;28;20148;-80
2023/01/21 07:13:53;;;;;;;90.22;33.58;;;;;;;-4.89;100.00;103050.03;5099932;28;20402;-80
2023/01/21 07:16:18;;;;;;;102.13;34.22;;;;;;;-4.89;100.00;103050.03;5113031;28;20023;-80
2023/01/21 07:18:43;;;;;;;94.95;33.75;;;;;;;-4.89;100.00;103050.03;5107101;28;20036;-81
2023/01/21 07:21:09;;;;;;;100.85;34.00;;;;;;;-4.89;100.00;103050.91;5104960;28;20031;-80
2023/01/21 07:23:34;;;;;;;100.65;33.45;;;;;;;-4.90;100.00;103053.34;5095350;28;20506;-80
2023/01/21 07:25:59;;;;;;;109.75;34.55;;;;;;;-4.85;100.00;103064.75;5093430;28;20020;-80
2023/01/21 07:28:25;;;;;;;101.43;34.90;;;;;;;-4.85;100.00;103072.38;5100413;28;20127;-80
2023/01/21 07:30:50;;;;;;;92.07;33.38;;;;;;;-5.06;100.00;103036.94;5111789;28;20488;-80
2023/01/21 07:33:15;;;;;;;98.82;32.38;;;;;;;-4.95;100.00;103066.59;5101008;28;20118;-81
2023/01/21 07:35:41;;;;;;;107.88;34.88;;;;;;;-5.10;100.00;103052.75;5107819;28;20149;-80
2023/01/21 07:38:06;;;;;;;104.18;32.97;;;;;;;-4.93;100.00;103083.66;5112260;28;20020;-80
2023/01/21 07:40:31;;;;;;;100.28;34.75;;;;;;;-4.91;100.00;103087.19;5110200;28;20522;-80
2023/01/21 07:42:57;;;;;;;106.70;34.78;;;;;;;-4.92;100.00;103083.75;5098157;28;20028;-80
2023/01/21 07:45:23;;;;;;;102.75;34.13;;;;;;;-4.89;100.00;103095.81;5097524;28;20027;-80
2023/01/21 07:47:48;;;;;;;108.93;35.05;;;;;;;-5.00;100.00;103078.09;5112527;28;20027;-80
2023/01/21 07:50:14;;;;;;;113.93;36.60;;;;;;;-4.84;100.00;103102.13;5099050;28;20022;-80
2023/01/21 07:52:39;;;;;;;106.10;34.63;;;;;;;-4.81;100.00;103108.34;5106994;28;20034;-80
2023/01/21 07:55:05;;;;;;;102.28;32.88;;;;;;;-4.86;100.00;103103.69;5091842;28;20391;-80
2023/01/21 07:57:31;;;;;;;105.53;33.53;;;;;;;-4.77;100.00;103112.03;5096000;28;20019;-80
2023/01/21 07:59:56;;;;;;;109.35;36.75;;;;;;;-4.75;100.00;103107.91;5096077;28;20028;-80
2023/01/21 08:02:21;;;;;;;106.30;35.95;;;;;;;-4.67;100.00;103116.16;5098093;28;20023;-80
2023/01/21 08:04:47;;;;;;;107.32;35.83;;;;;;;-4.64;100.00;103118.88;5105732;28;20376;-80
2023/01/21 08:07:12;;;;;;;107.38;35.20;;;;;;;-4.67;100.00;103117.03;5092261;28;20024;-80
2023/01/21 08:09:38;;;;;;;107.53;36.10;;;;;;;-4.56;100.00;103130.53;5097047;28;20103;-80
2023/01/21 08:12:04;;;;;;;123.95;38.28;;;;;;;-4.55;100.00;103122.13;5102022;28;20032;-80
2023/01/21 08:14:30;;;;;;;127.85;38.22;;;;;;;-4.42;100.00;103137.53;5091768;28;20031;-80
2023/01/21 08:16:56;;;;;;;136.30;41.05;;;;;;;-4.29;100.00;103144.44;5094918;28;20028;-80
2023/01/21 08:19:21;;;;;;;141.25;41.00;;;;;;;-4.14;100.00;103149.78;5091864;28;20048;-81
2023/01/21 08:21:47;;;;;;;138.07;41.50;;;;;;;-4.06;100.00;103143.56;5091728;28;20024;-80
2023/01/21 08:24:12;;;;;;;141.10;41.25;;;;;;;-4.05;100.00;103130.06;5091276;28;20036;-81
2023/01/21 08:26:37;;;;;;;156.80;42.80;;;;;;;-3.84;100.00;103156.22;5092450;28;20521;-81
2023/01/21 08:29:03;;;;;;;157.38;46.08;;;;;;;-3.78;100.00;103141.34;5091953;28;20028;-81
2023/01/21 08:31:28;;;;;;;153.18;43.15;;;;;;;-3.79;100.00;103144.69;5092062;28;20032;-81
2023/01/21 08:33:53;;;;;;;161.05;44.50;;;;;;;-3.67;100.00;103149.75;5097610;28;20030;-81
2023/01/21 08:36:18;;;;;;;159.65;44.28;;;;;;;-3.53;100.00;103172.94;5107504;28;20040;-80
2023/01/21 08:38:44;;;;;;;169.20;45.67;;;;;;;-3.44;100.00;103182.00;5100567;28;20039;-80
2023/01/21 08:41:09;;;;;;;158.57;43.42;;;;;;;-3.39;100.00;103173.91;5110911;28;20023;-80
2023/01/21 08:43:35;;;;;;;152.80;44.28;;;;;;;-3.43;100.00;103176.16;5097653;28;20036;-81
2023/01/21 08:46:01;;;;;;;160.77;41.63;;;;;;;-3.39;100.00;103183.22;5093907;28;20091;-80
2023/01/21 08:48:28;;;;;;;167.13;44.15;;;;;;;-3.33;100.00;103188.75;5097368;22;20047;-81
2023/01/21 08:50:57;;;;;;;155.65;45.25;;;;;;;-3.24;100.00;103191.94;5069224;28;20115;-80
2023/01/21 08:53:22;;;;;;;175.68;47.95;;;;;;;-3.17;100.00;103193.25;5071484;28;20108;-81
2023/01/21 08:55:47;;;;;;;167.98;46.22;;;;;;;-3.18;100.00;103194.91;5072065;28;20051;-81
2023/01/21 08:58:12;;;;;;;171.40;47.50;;;;;;;-3.13;100.00;103208.03;5071092;28;20460;-81
2023/01/21 09:00:40;;;;;;;175.60;45.33;;;;;;;-3.09;100.00;103205.78;5070588;28;20040;-83
2023/01/21 09:03:06;;;;;;;166.95;46.08;;;;;;;-3.09;100.00;103195.56;5075248;28;20047;-81
2023/01/21 09:05:32;;;;;;;182.93;50.30;;;;;;;-2.93;100.00;103204.31;5073981;28;20048;-82
2023/01/21 09:07:57;;;;;;;196.73;50.53;;;;;;;-2.89;100.00;103208.84;5071868;28;20493;-80
2023/01/21 09:13:08;;;;;;;187.27;46.30;;;;;;;-2.78;100.00;103209.56;5071274;28;20509;-82
2023/01/21 09:15:38;;;;;;;187.48;46.97;;;;;;;-2.77;100.00;103207.13;5074762;28;20016;-82
2023/01/21 09:18:03;;;;;;;169.82;44.92;;;;;;;-2.80;100.00;103196.72;5073947;28;20020;-82
2023/01/21 09:20:28;;;;;;;180.85;49.15;;;;;;;-2.69;100.00;103207.66;5065547;28;20135;-82
2023/01/21 09:22:54;;;;;;;170.55;46.95;;;;;;;-2.69;100.00;103213.63;5065963;28;20479;-82
2023/01/21 09:25:19;;;;;;;188.68;46.85;;;;;;;-2.73;100.00;103198.91;5072260;28;20021;-82
2023/01/21 09:27:44;;;;;;;167.95;44.83;;;;;;;-2.63;100.00;103214.06;5074455;28;20060;-80
2023/01/21 09:30:10;;;;;;;182.52;48.35;;;;;;;-2.60;100.00;103214.28;5072947;28;20035;-81
2023/01/21 09:32:36;;;;;;;171.98;47.58;;;;;;;-2.56;100.00;103212.81;5074688;28;20074;-80
2023/01/21 09:35:01;;;;;;;177.10;45.33;;;;;;;-2.59;100.00;103207.50;5073063;28;20498;-81
2023/01/21 09:37:26;;;;;;;179.35;47.65;;;;;;;-2.48;100.00;103223.56;5074837;28;20040;-81
2023/01/21 09:39:51;;;;;;;176.43;46.08;;;;;;;-2.44;100.00;103230.66;5071536;28;20361;-81
2023/01/21 09:42:22;;;;;;;169.50;44.33;;;;;;;-2.46;100.00;103232.19;5072341;28;20028;-81
2023/01/21 09:44:51;;;;;;;148.95;42.10;;;;;;;-2.46;100.00;103242.41;5073081;28;20048;-81
2023/01/21 09:47:23;;;;;;;163.98;42.97;;;;;;;-2.42;100.00;103244.38;5073449;28;20494;-81
2023/01/21 09:49:53;;;;;;;166.60;43.95;;;;;;;-2.39;100.00;103255.72;5070021;28;20090;-81
2023/01/21 09:52:26;;;;;;;165.30;43.08;;;;;;;-2.36;100.00;103255.03;5062747;28;20079;-83
2023/01/21 09:54:52;;;;;;;186.18;46.50;;;;;;;-2.34;100.00;103257.72;5062831;28;20047;-82
2023/01/21 09:57:45;;;;;;;168.70;43.63;;;;;;;-2.32;100.00;103261.22;5073827;28;20020;-81
2023/01/21 10:00:31;;;;;;;182.23;44.67;;;;;;;-2.25;100.00;103266.00;5062778;28;20036;-82
2023/01/21 10:03:30;;;;;;;188.50;43.38;;;;;;;-2.21;100.00;103270.53;5062995;28;20399;-82
2023/01/21 10:05:56;;;;;;;173.55;45.35;;;;;;;-2.19;100.00;103274.06;5072063;28;20115;-82
2023/01/21 10:08:33;;;;;;;166.38;42.90;;;;;;;-2.25;100.00;103269.44;5071236;28;20119;-82
2023/01/21 10:11:29;;;;;;;159.02;41.95;;;;;;;-2.29;100.00;103264.91;5061445;28;20051;-82
2023/01/21 10:14:02;;;;;;;153.02;39.00;;;;;;;-2.24;100.00;103285.66;5071378;28;20041;-82
2023/01/21 10:16:46;;;;;;;;;;;;;;;-2.18;100.00;103288.63;5064981;28;20045;-82
2023/01/21 10:19:17;;;;;;;154.07;37.97;;;;;;;-2.22;100.00;103284.09;5068267;28;20379;-82
2023/01/21 10:21:56;;;;;;;150.57;39.40;;;;;;;-2.25;100.00;103278.78;5073727;28;20111;-81
2023/01/21 10:24:47;;;;;;;180.85;43.80;;;;;;;-2.19;100.00;103295.41;5073624;28;20051;-82
2023/01/21 10:27:18;;;;;;;163.07;45.47;;;;;;;-2.25;100.00;103283.88;5046492;28;20060;-82
2023/01/21 10:29:47;;;;;;;177.43;41.10;;;;;;;-2.40;100.00;103261.59;5065764;28;20073;-82
2023/01/21 10:32:17;;;;;;;165.23;41.25;;;;;;;-2.18;100.00;103303.97;5087170;28;20372;-82
2023/01/21 10:34:56;;;;;;;163.18;40.92;;;;;;;-2.14;100.00;103299.16;5066561;28;20033;-82
2023/01/21 10:37:41;;;;;;;155.75;41.05;;;;;;;-2.13;100.00;103290.72;5063385;28;20498;-82
2023/01/21 10:40:41;;;;;;;151.75;40.75;;;;;;;-2.08;100.00;103288.47;5066523;28;20039;-83
2023/01/21 10:43:49;;;;;;;181.30;42.60;;;;;;;-1.93;100.00;103293.69;5062520;28;20064;-83
2023/01/21 10:46:53;;;;;;;175.48;42.75;;;;;;;-1.84;100.00;103286.63;5052538;28;20021;-83
2023/01/21 10:49:43;;;;;;;176.48;42.30;;;;;;;-1.74;100.00;103281.34;5017285;28;20913;-84
2023/01/21 10:52:13;;;;;;;178.43;43.55;;;;;;;-1.69;100.00;103279.09;5073219;28;20062;-84
2023/01/21 10:54:56;;;;;;;183.20;41.95;;;;;;;-1.63;100.00;103278.63;5073891;28;20016;-84
2023/01/21 10:57:45;;;;;;;191.68;45.55;;;;;;;-1.56;100.00;103266.31;5072520;28;20120;-84
2023/01/21 11:00:39;;;;;;;161.00;41.15;;;;;;;-1.56;100.00;103255.22;5073237;28;20035;-84
2023/01/21 11:03:23;;;;;;;161.95;40.08;;;;;;;-1.46;100.00;103268.69;5064599;28;20082;-84
2023/01/21 11:05:48;;;;;;;193.35;43.65;;;;;;;-1.49;100.00;103252.25;5073023;28;20035;-85
2023/01/21 11:08:20;;;;;;;183.50;42.50;;;;;;;-1.44;100.00;103259.44;5072872;28;20100;-84
2023/01/21 11:10:46;;;;;;;173.30;42.92;;;;;;;-1.44;100.00;103269.69;5072501;28;20527;-84
2023/01/21 11:13:13;;;;;;;166.93;41.72;;;;;;;-1.35;100.00;103271.94;5066334;28;20419;-84
2023/01/21 11:15:50;;;;;;;174.40;43.00;;;;;;;-1.32;100.00;103269.56;5065579;28;20048;-84